METAR = EDDE 220150Z 21009KT CAVOK 04/02 Q1032

TAF = TAF TAF EDDE 211700Z 2118/2218 VRB03KT CAVOK TEMPO 2202/2208 3000 BR BECMG 2209/2211 06005KT

METAR EDDE Decoded:

STATION........ EDDE
OBSERVED....... Fri Mar 22, 02:50 MET
NOW............ Fri Mar 22, 03:22 MET
AGE............ 32 min ago
WIND........... SSW at 17 km/h
VISIBILITY..... more than 10 km
CLOUDS......... clear skies
TEMP........... 39°F (4°C)
WIND CHILL..... 30°F (-1°C)
DEWPT.......... 36°F (2°C)
HUMIDITY....... 87%
BAROMETER...... 1032 hPa (30.47 in Hg)


ICAO-Code: